Time;durP1;ratioP1;P1;durP2;ratioP2;P2;SDS_P1;SDS_P2;PMS_P1;PMS_P2;Temp;Humidity;BMP_temperature;BMP_pressure;BME280_temperature;BME280_humidity;BME280_pressure;Samples;Min_cycle;Max_cycle;Signal;HPM_P1;HPM_P2
2021/07/27 00:00:57;;;;;;;6.70;5.10;;;26.80;93.70;;;;;;5092760;28;20523;-50
2021/07/27 00:03:26;;;;;;;6.18;4.70;;;26.70;93.90;;;;;;5093235;28;20491;-50
2021/07/27 00:05:54;;;;;;;7.78;5.43;;;26.70;94.40;;;;;;5092629;28;20048;-49
2021/07/27 00:08:27;;;;;;;10.77;5.07;;;26.60;95.00;;;;;;5091983;28;20493;-49
2021/07/27 00:10:58;;;;;;;10.50;5.72;;;26.60;95.60;;;;;;5092705;28;20052;-50
2021/07/27 00:13:29;;;;;;;8.13;5.70;;;26.60;96.10;;;;;;5093215;28;20044;-49
2021/07/27 00:15:58;;;;;;;8.77;5.03;;;26.60;96.40;;;;;;5092931;28;20127;-49
2021/07/27 00:18:26;;;;;;;8.02;5.53;;;26.70;96.80;;;;;;5091917;28;20044;-48
2021/07/27 00:20:54;;;;;;;7.45;5.00;;;26.60;97.30;;;;;;5092622;28;20118;-49
2021/07/27 00:23:22;;;;;;;9.48;5.57;;;26.40;98.10;;;;;;5093352;28;20040;-48
2021/07/27 00:25:55;;;;;;;7.93;4.97;;;26.40;98.60;;;;;;5092593;28;20044;-48
2021/07/27 00:28:25;;;;;;;7.03;4.75;;;26.40;99.00;;;;;;5091843;28;20401;-49
2021/07/27 00:30:52;;;;;;;8.00;5.68;;;26.20;99.70;;;;;;5092310;28;20412;-49
2021/07/27 00:33:22;;;;;;;8.15;5.38;;;26.30;99.90;;;;;;5091800;28;20457;-49
2021/07/27 00:35:50;;;;;;;7.13;5.38;;;26.40;99.90;;;;;;5067484;28;20040;-48
2021/07/27 00:38:19;;;;;;;8.80;5.13;;;26.50;99.90;;;;;;5079258;28;20127;-48
2021/07/27 00:40:48;;;;;;;10.35;5.68;;;26.40;99.90;;;;;;5096090;28;20440;-49
2021/07/27 00:43:19;;;;;;;7.68;5.05;;;26.10;99.90;;;;;;5096953;28;20051;-48
2021/07/27 00:45:48;;;;;;;7.90;5.88;;;26.00;99.90;;;;;;5096453;28;20075;-49
2021/07/27 00:48:16;;;;;;;8.93;5.97;;;26.00;99.90;;;;;;5095720;28;20044;-49
2021/07/27 00:50:45;;;;;;;10.63;5.97;;;25.90;99.90;;;;;;5095962;28;20044;-49
2021/07/27 00:53:15;;;;;;;7.82;5.63;;;26.00;99.90;;;;;;5095797;28;20043;-49
2021/07/27 00:55:43;;;;;;;9.70;7.05;;;26.10;99.90;;;;;;5096153;28;20075;-48
2021/07/27 00:58:14;;;;;;;9.40;6.53;;;26.00;99.90;;;;;;5096896;28;20040;-48
2021/07/27 01:00:43;;;;;;;8.13;6.20;;;26.10;99.90;;;;;;5095934;28;20432;-53
2021/07/27 01:03:12;;;;;;;8.50;5.18;;;26.10;99.90;;;;;;5096681;28;20040;-49
2021/07/27 01:05:39;;;;;;;9.93;6.10;;;26.00;99.90;;;;;;5095674;28;20059;-49
2021/07/27 01:08:08;;;;;;;9.30;6.05;;;26.10;99.90;;;;;;5074889;28;20043;-48
2021/07/27 01:10:36;;;;;;;12.88;7.30;;;26.10;99.90;;;;;;5080431;28;20052;-51
2021/07/27 01:13:05;;;;;;;8.75;6.00;;;26.10;99.90;;;;;;5094812;28;20559;-49
2021/07/27 01:15:36;;;;;;;13.48;6.07;;;26.00;99.90;;;;;;5096000;28;20040;-48
2021/07/27 01:18:14;;;;;;;9.10;6.20;;;26.00;99.90;;;;;;5076047;28;20449;-48
2021/07/27 01:20:52;;;;;;;8.07;5.15;;;26.10;99.90;;;;;;5081287;28;20051;-51
2021/07/27 01:40:01;;;;;;;11.55;7.00;;;26.40;99.90;;;;;;5095313;28;20067;-48
2021/07/27 01:42:38;;;;;;;10.13;6.25;;;26.20;99.90;;;;;;5095745;28;20044;-49
2021/07/27 01:45:07;;;;;;;9.20;6.07;;;26.20;99.90;;;;;;5095269;28;20054;-49
2021/07/27 01:47:34;;;;;;;11.18;5.97;;;26.00;99.90;;;;;;5090023;28;20135;-48
2021/07/27 01:50:03;;;;;;;10.77;6.78;;;26.10;99.90;;;;;;5090644;28;20501;-48
2021/07/27 01:52:30;;;;;;;10.43;6.22;;;26.00;99.90;;;;;;5095498;28;20567;-48
2021/07/27 01:54:59;;;;;;;8.18;5.88;;;26.00;99.90;;;;;;5094540;28;20036;-48
2021/07/27 01:57:28;;;;;;;11.55;6.55;;;26.10;99.90;;;;;;5095459;28;20044;-48
2021/07/27 01:59:57;;;;;;;9.80;5.80;;;26.00;99.90;;;;;;5094925;28;20079;-48
2021/07/27 02:02:27;;;;;;;11.57;6.50;;;25.90;99.90;;;;;;5095359;28;20040;-49
2021/07/27 02:04:55;;;;;;;12.65;6.93;;;25.90;99.90;;;;;;5094455;28;20048;-48
2021/07/27 02:07:24;;;;;;;9.52;6.63;;;25.70;99.90;;;;;;5095355;28;20071;-50
2021/07/27 02:10:00;;;;;;;10.40;7.53;;;25.60;99.90;;;;;;5094740;28;20047;-48
2021/07/27 02:12:36;;;;;;;10.70;7.03;;;25.60;99.90;;;;;;5095345;28;20551;-47
2021/07/27 02:15:07;;;;;;;13.77;7.47;;;25.60;99.90;;;;;;5094702;28;20081;-48
2021/07/27 02:17:36;;;;;;;12.57;7.32;;;25.60;99.90;;;;;;5095164;28;20038;-49
2021/07/27 02:20:07;;;;;;;9.25;5.88;;;25.70;99.90;;;;;;5094521;28;20068;-48
2021/07/27 02:22:36;;;;;;;11.10;7.90;;;25.70;99.90;;;;;;5094901;28;20502;-48
2021/07/27 02:25:06;;;;;;;11.98;7.40;;;25.60;99.90;;;;;;5094604;28;20044;-48
2021/07/27 02:27:34;;;;;;;8.80;6.38;;;25.60;99.90;;;;;;5094854;28;20066;-48
2021/07/27 02:30:04;;;;;;;12.15;7.80;;;25.60;99.90;;;;;;5073429;28;20040;-48
2021/07/27 02:32:34;;;;;;;9.88;7.72;;;25.60;99.90;;;;;;5072355;28;20097;-48
2021/07/27 02:35:06;;;;;;;16.15;7.80;;;25.60;99.90;;;;;;5094033;28;20502;-48
2021/07/27 02:37:36;;;;;;;9.70;7.28;;;25.50;99.90;;;;;;5094956;28;20124;-51
2021/07/27 02:40:06;;;;;;;10.23;6.65;;;25.60;99.90;;;;;;5089215;28;20040;-48
2021/07/27 02:42:36;;;;;;;10.30;7.03;;;25.50;99.90;;;;;;5094653;28;20044;-47
2021/07/27 02:45:12;;;;;;;12.25;7.82;;;25.60;99.90;;;;;;5094030;28;20407;-47
2021/07/27 02:47:41;;;;;;;10.52;6.28;;;25.60;99.90;;;;;;5080256;28;20068;-50
2021/07/27 02:50:10;;;;;;;9.77;7.20;;;25.70;99.90;;;;;;5093974;28;20544;-51
2021/07/27 02:52:39;;;;;;;11.30;6.63;;;25.80;99.90;;;;;;5094426;28;20040;-50
2021/07/27 02:55:08;;;;;;;8.95;7.05;;;25.70;99.90;;;;;;5093246;28;20085;-52
2021/07/27 02:57:37;;;;;;;14.15;7.00;;;25.70;99.90;;;;;;5093948;28;20109;-49
2021/07/27 03:00:10;;;;;;;11.45;6.88;;;25.70;99.90;;;;;;5093644;28;20083;-52
2021/07/27 03:02:46;;;;;;;13.13;7.45;;;25.80;99.90;;;;;;5093988;28;20036;-48
2021/07/27 03:05:16;;;;;;;8.90;6.07;;;25.80;99.90;;;;;;5093413;28;20559;-53
2021/07/27 03:10:19;;;;;;;12.13;6.72;;;25.80;99.90;;;;;;5093890;28;20048;-51
2021/07/27 03:12:53;;;;;;;14.85;8.23;;;25.70;99.90;;;;;;5093585;28;20497;-50
2021/07/27 03:15:26;;;;;;;9.57;7.28;;;25.50;99.90;;;;;;5093462;28;20509;-51
2021/07/27 03:17:56;;;;;;;9.95;7.45;;;25.40;99.90;;;;;;5093465;28;20194;-52
2021/07/27 03:20:25;;;;;;;11.52;7.40;;;25.50;99.90;;;;;;5092694;28;20134;-49
2021/07/27 03:22:56;;;;;;;10.63;7.68;;;25.50;99.90;;;;;;5090629;28;20063;-52
2021/07/27 03:25:25;;;;;;;14.07;8.45;;;25.40;99.90;;;;;;5092694;28;20055;-51
2021/07/27 03:27:53;;;;;;;12.50;7.50;;;25.30;99.90;;;;;;5090216;28;20046;-47
2021/07/27 03:30:21;;;;;;;14.60;7.97;;;25.30;99.90;;;;;;5085738;28;20378;-53
2021/07/27 03:32:50;;;;;;;12.07;8.45;;;25.20;99.90;;;;;;5092687;28;20060;-52
2021/07/27 03:35:20;;;;;;;11.48;8.52;;;25.30;99.90;;;;;;5093032;28;20493;-51
2021/07/27 03:37:50;;;;;;;10.70;7.63;;;25.20;99.90;;;;;;5093705;28;20068;-49
2021/07/27 03:40:21;;;;;;;9.65;7.55;;;25.30;99.90;;;;;;5092315;28;20444;-53
2021/07/27 03:42:48;;;;;;;12.88;8.57;;;25.30;99.90;;;;;;5092847;28;20040;-48
2021/07/27 03:45:17;;;;;;;12.48;8.52;;;25.30;99.90;;;;;;5092587;28;20048;-47
2021/07/27 03:47:45;;;;;;;13.32;8.63;;;25.20;99.90;;;;;;5093352;28;20043;-49
2021/07/27 03:50:13;;;;;;;13.70;9.25;;;25.20;99.90;;;;;;5092983;28;20127;-50
2021/07/27 03:52:42;;;;;;;11.05;7.72;;;25.20;99.90;;;;;;5093382;28;20055;-48
2021/07/27 03:55:10;;;;;;;15.27;8.88;;;25.20;99.90;;;;;;5083506;28;20582;-47
2021/07/27 03:57:38;;;;;;;13.32;8.52;;;25.30;99.90;;;;;;5072279;28;20036;-47
2021/07/27 04:00:07;;;;;;;13.18;8.85;;;25.40;99.90;;;;;;5072391;28;20506;-47
2021/07/27 04:02:37;;;;;;;13.05;8.82;;;25.40;99.90;;;;;;5073312;28;20070;-48
2021/07/27 04:05:07;;;;;;;11.07;9.00;;;25.50;99.90;;;;;;5072403;28;20049;-47
2021/07/27 04:07:36;;;;;;;13.05;8.65;;;25.60;99.90;;;;;;5073417;28;20102;-47
2021/07/27 04:10:07;;;;;;;12.07;8.48;;;25.60;99.90;;;;;;5056906;28;20045;-48
2021/07/27 04:12:36;;;;;;;13.32;9.23;;;25.60;99.90;;;;;;5077514;28;20074;-47
2021/07/27 04:15:07;;;;;;;11.40;8.68;;;25.60;99.90;;;;;;5076657;28;20045;-47
2021/07/27 04:17:37;;;;;;;10.73;8.93;;;25.60;99.90;;;;;;5077149;28;20044;-47
2021/07/27 04:20:05;;;;;;;11.55;8.23;;;25.70;99.90;;;;;;5076598;28;20036;-52
2021/07/27 04:22:33;;;;;;;14.02;10.02;;;25.70;99.90;;;;;;5077330;28;20051;-47
2021/07/27 04:25:03;;;;;;;9.93;8.48;;;25.80;99.90;;;;;;5076240;28;20080;-50
2021/07/27 04:27:33;;;;;;;12.65;9.45;;;25.70;99.90;;;;;;5076829;28;20514;-48
2021/07/27 04:30:01;;;;;;;11.75;7.80;;;25.70;99.90;;;;;;5076601;28;20040;-47
2021/07/27 04:32:29;;;;;;;11.93;8.20;;;25.80;99.90;;;;;;5076812;28;20047;-48
2021/07/27 04:35:03;;;;;;;11.75;8.48;;;25.70;99.90;;;;;;5075859;28;20494;-48
2021/07/27 04:37:33;;;;;;;13.20;8.75;;;25.70;99.90;;;;;;5077132;28;20049;-49
2021/07/27 04:40:03;;;;;;;12.90;8.70;;;25.70;99.90;;;;;;5076116;28;20047;-47
2021/07/27 04:42:31;;;;;;;11.98;8.75;;;25.80;99.90;;;;;;5076873;28;20047;-47
2021/07/27 04:44:59;;;;;;;14.23;8.93;;;25.80;99.90;;;;;;5075946;28;20037;-52
2021/07/27 04:47:27;;;;;;;15.05;9.65;;;25.80;99.90;;;;;;5076679;28;20040;-48
2021/07/27 04:49:55;;;;;;;14.48;8.80;;;25.80;99.90;;;;;;5074757;28;20137;-48
2021/07/27 04:52:23;;;;;;;11.63;8.20;;;25.80;99.90;;;;;;5076524;28;20083;-47
2021/07/27 04:54:57;;;;;;;15.13;9.45;;;25.90;99.90;;;;;;5076703;28;20036;-52
2021/07/27 04:57:25;;;;;;;16.27;9.95;;;26.00;99.90;;;;;;5063653;28;20101;-50
2021/07/27 04:59:52;;;;;;;15.80;10.75;;;26.10;99.90;;;;;;5087176;28;20040;-48
2021/07/27 05:02:22;;;;;;;14.10;9.50;;;26.10;99.90;;;;;;5096808;28;20040;-49
2021/07/27 05:04:50;;;;;;;14.63;8.82;;;26.20;99.90;;;;;;5095632;28;20125;-50
2021/07/27 05:07:18;;;;;;;13.57;8.75;;;26.40;99.90;;;;;;5096463;28;20040;-51
2021/07/27 05:09:45;;;;;;;14.07;7.75;;;26.50;99.90;;;;;;5095938;28;20040;-50
2021/07/27 05:12:15;;;;;;;9.90;7.57;;;26.60;99.90;;;;;;5087562;28;20040;-53
2021/07/27 05:14:43;;;;;;;13.27;8.48;;;26.80;99.90;;;;;;5095462;28;20559;-51
2021/07/27 05:17:11;;;;;;;13.88;8.32;;;26.80;99.90;;;;;;5096640;28;20428;-53
2021/07/27 05:19:50;;;;;;;10.48;7.57;;;26.80;99.90;;;;;;5095391;28;20543;-52
2021/07/27 05:22:20;;;;;;;9.82;7.28;;;27.00;99.90;;;;;;5095781;28;20044;-53
2021/07/27 05:24:48;;;;;;;11.18;7.30;;;27.20;99.90;;;;;;5095584;28;20472;-50
2021/07/27 05:27:24;;;;;;;9.85;6.82;;;27.30;99.90;;;;;;5096049;28;20044;-52
2021/07/27 05:29:53;;;;;;;;;;;27.50;99.90;;;;;;5095769;28;20040;-50
2021/07/27 05:32:22;;;;;;;10.52;6.72;;;27.70;99.90;;;;;;5095933;28;20015;-50
2021/07/27 05:34:50;;;;;;;12.00;7.13;;;27.90;99.90;;;;;;5094849;28;20054;-52
2021/07/27 05:37:19;;;;;;;10.38;6.97;;;28.10;99.90;;;;;;5095638;28;20032;-53
2021/07/27 05:39:49;;;;;;;9.75;6.68;;;28.10;99.90;;;;;;5095506;28;20040;-53
2021/07/27 05:42:16;;;;;;;8.77;6.60;;;28.20;99.90;;;;;;5095810;28;20078;-52
2021/07/27 05:44:44;;;;;;;7.95;6.70;;;28.20;99.90;;;;;;5090488;28;20143;-51
2021/07/27 05:47:12;;;;;;;8.50;6.30;;;28.40;99.90;;;;;;5095497;28;20044;-53
2021/07/27 05:49:40;;;;;;;12.82;6.95;;;28.40;99.90;;;;;;5094783;28;20048;-52
2021/07/27 05:52:14;;;;;;;10.32;6.88;;;28.50;99.90;;;;;;5095974;28;20040;-51
2021/07/27 05:54:45;;;;;;;10.55;6.97;;;28.60;99.90;;;;;;5094752;28;20405;-52
2021/07/27 05:57:13;;;;;;;12.30;7.60;;;28.60;99.90;;;;;;5095498;28;20051;-53
2021/07/27 05:59:42;;;;;;;7.97;5.88;;;28.80;99.90;;;;;;5094801;28;20066;-53
2021/07/27 06:02:15;;;;;;;9.73;6.40;;;28.90;99.90;;;;;;5095888;28;20047;-52
2021/07/27 06:04:44;;;;;;;10.40;6.32;;;28.90;99.90;;;;;;5094543;28;21279;-52
2021/07/27 06:07:11;;;;;;;11.88;7.07;;;29.10;99.90;;;;;;5095339;28;20047;-54
2021/07/27 06:09:39;;;;;;;12.13;6.78;;;29.20;99.90;;;;;;5094799;28;20047;-51
2021/07/27 06:12:10;;;;;;;10.07;6.15;;;29.30;99.90;;;;;;5095132;28;20044;-54
2021/07/27 06:14:39;;;;;;;10.73;6.78;;;29.50;99.90;;;;;;5094917;28;20438;-52
2021/07/27 06:17:12;;;;;;;10.02;5.40;;;29.70;99.90;;;;;;5095142;28;20044;-49
2021/07/27 06:19:40;;;;;;;13.35;6.32;;;29.90;99.90;;;;;;5094281;28;20044;-50
2021/07/27 06:22:08;;;;;;;10.35;6.03;;;30.10;99.90;;;;;;5085280;28;20035;-50
2021/07/27 06:24:36;;;;;;;16.15;9.43;;;30.30;99.90;;;;;;5094489;28;20044;-51
2021/07/27 06:27:04;;;;;;;20.90;11.85;;;30.30;99.90;;;;;;5085942;28;20040;-48
2021/07/27 06:29:33;;;;;;;17.75;10.85;;;30.50;99.90;;;;;;5090055;28;20108;-52
2021/07/27 06:32:01;;;;;;;14.82;7.53;;;30.70;99.90;;;;;;5084255;28;20036;-49
2021/07/27 06:34:30;;;;;;;14.82;6.90;;;30.80;99.90;;;;;;5094155;28;20040;-52
2021/07/27 06:36:57;;;;;;;10.10;6.10;;;30.90;99.90;;;;;;5084514;28;20405;-50
2021/07/27 06:39:25;;;;;;;8.80;6.38;;;30.90;99.90;;;;;;5094212;28;20040;-50
2021/07/27 06:41:55;;;;;;;8.82;5.43;;;30.90;99.90;;;;;;5084293;28;20139;-54
2021/07/27 06:44:24;;;;;;;7.43;5.03;;;30.90;99.90;;;;;;5093930;28;20414;-53
2021/07/27 06:46:53;;;;;;;15.73;6.47;;;31.10;99.90;;;;;;5084126;28;20051;-52
2021/07/27 06:49:22;;;;;;;11.57;5.10;;;31.00;99.50;;;;;;5093871;28;20032;-54
2021/07/27 06:51:54;;;;;;;10.57;5.95;;;31.10;99.10;;;;;;5093920;28;20513;-54
2021/07/27 06:54:23;;;;;;;9.88;6.78;;;30.90;98.50;;;;;;5090453;28;20119;-54
2021/07/27 06:56:54;;;;;;;10.63;6.53;;;31.10;98.60;;;;;;5093652;28;20509;-51
2021/07/27 06:59:23;;;;;;;10.00;6.40;;;31.20;98.30;;;;;;5090320;28;20046;-51
2021/07/27 07:01:51;;;;;;;9.48;5.65;;;31.30;98.30;;;;;;5094164;28;20044;-52
2021/07/27 07:04:19;;;;;;;7.78;5.53;;;31.60;97.70;;;;;;5093459;28;20189;-53
2021/07/27 07:06:47;;;;;;;8.75;4.32;;;31.80;96.90;;;;;;5093642;28;20101;-54
2021/07/27 07:09:15;;;;;;;8.60;4.32;;;31.90;96.60;;;;;;5092954;28;20533;-51
2021/07/27 07:11:42;;;;;;;7.90;4.82;;;32.10;96.00;;;;;;5094167;28;20052;-51
2021/07/27 07:14:11;;;;;;;9.77;4.78;;;32.00;95.70;;;;;;5093446;28;20456;-51
2021/07/27 07:16:39;;;;;;;9.23;5.03;;;32.10;95.30;;;;;;5093962;28;20177;-53
2021/07/27 07:19:08;;;;;;;8.60;4.57;;;32.10;94.50;;;;;;5092949;28;20039;-55
2021/07/27 07:21:36;;;;;;;7.43;5.28;;;32.10;93.70;;;;;;5092529;28;20066;-51
2021/07/27 07:24:06;;;;;;;6.43;4.65;;;32.00;93.10;;;;;;5093491;28;20436;-54
2021/07/27 07:26:34;;;;;;;7.65;4.55;;;32.10;92.50;;;;;;5093591;28;20046;-52
2021/07/27 07:29:02;;;;;;;7.22;4.93;;;32.40;92.40;;;;;;5091300;28;20093;-51
2021/07/27 07:31:30;;;;;;;10.10;4.85;;;32.50;92.70;;;;;;5089132;28;20048;-52
2021/07/27 07:33:59;;;;;;;9.57;5.05;;;32.70;92.10;;;;;;5057950;28;20040;-49
2021/07/27 07:36:26;;;;;;;9.52;5.05;;;32.90;91.70;;;;;;5093386;28;20056;-53
2021/07/27 07:38:55;;;;;;;7.70;4.78;;;33.10;91.40;;;;;;5092745;28;20102;-50
2021/07/27 07:41:24;;;;;;;9.95;5.32;;;33.20;90.40;;;;;;5093627;28;20044;-51
2021/07/27 07:43:53;;;;;;;9.45;4.78;;;33.30;90.20;;;;;;5093151;28;20047;-52
2021/07/27 07:46:20;;;;;;;7.07;4.90;;;33.40;90.20;;;;;;5093349;28;20044;-53
2021/07/27 07:48:48;;;;;;;9.40;5.95;;;33.20;89.40;;;;;;5092450;28;20490;-55
2021/07/27 07:51:16;;;;;;;9.73;6.10;;;33.50;89.40;;;;;;5048008;28;20044;-55
2021/07/27 07:53:43;;;;;;;8.10;4.88;;;33.50;88.70;;;;;;5093102;28;20036;-50
2021/07/27 07:56:11;;;;;;;8.77;4.47;;;33.70;87.80;;;;;;5076637;28;20083;-54
2021/07/27 07:58:40;;;;;;;7.65;5.15;;;33.80;85.00;;;;;;5071774;28;20380;-53
2021/07/27 08:01:09;;;;;;;7.45;5.32;;;33.70;83.60;;;;;;5072508;28;20098;-53
2021/07/27 08:03:37;;;;;;;13.32;5.00;;;33.40;83.20;;;;;;5071639;28;20507;-57
2021/07/27 08:06:05;;;;;;;10.70;5.50;;;33.10;84.80;;;;;;5071751;28;20616;-52
2021/07/27 08:08:35;;;;;;;8.65;4.72;;;33.20;85.50;;;;;;5071987;28;20044;-54
2021/07/27 08:11:11;;;;;;;6.97;5.20;;;33.20;84.70;;;;;;5070846;28;20040;-55
2021/07/27 08:13:38;;;;;;;8.32;4.93;;;33.20;86.30;;;;;;5072432;28;20044;-56
2021/07/27 08:16:08;;;;;;;10.25;5.97;;;33.50;86.30;;;;;;5070505;28;20045;-51
2021/07/27 08:18:37;;;;;;;11.48;5.47;;;33.70;83.90;;;;;;5072550;28;20072;-53
2021/07/27 08:21:05;;;;;;;7.55;4.32;;;33.80;80.50;;;;;;5072958;28;20100;-55
2021/07/27 08:23:33;;;;;;;12.65;5.47;;;33.80;79.40;;;;;;5054943;28;20403;-54
2021/07/27 08:26:02;;;;;;;11.18;5.45;;;33.80;82.00;;;;;;5072564;28;20055;-52
2021/07/27 08:28:30;;;;;;;9.07;5.65;;;34.20;81.90;;;;;;5071625;28;20101;-53
2021/07/27 08:30:59;;;;;;;7.30;4.93;;;34.50;81.20;;;;;;5072228;28;20051;-53
2021/07/27 08:33:27;;;;;;;10.85;5.15;;;34.70;80.50;;;;;;5073129;28;20131;-55
2021/07/27 08:35:54;;;;;;;9.52;5.88;;;34.90;80.20;;;;;;5070997;28;20040;-55
2021/07/27 08:38:23;;;;;;;9.32;5.03;;;35.00;76.80;;;;;;5072820;28;20075;-52
2021/07/27 08:40:52;;;;;;;9.18;4.93;;;34.90;76.40;;;;;;5072157;28;20052;-51
2021/07/27 08:43:20;;;;;;;9.40;4.47;;;34.90;76.20;;;;;;5072659;28;20041;-53
2021/07/27 08:45:51;;;;;;;5.93;4.80;;;35.00;76.20;;;;;;5072691;28;20048;-52
2021/07/27 08:48:22;;;;;;;6.25;4.38;;;35.20;75.30;;;;;;5071647;28;20041;-52
2021/07/27 08:50:50;;;;;;;8.45;4.28;;;35.00;74.30;;;;;;5051652;28;20049;-53
2021/07/27 08:53:18;;;;;;;6.88;4.82;;;35.10;73.30;;;;;;5072722;28;20059;-53
2021/07/27 08:55:46;;;;;;;8.32;4.70;;;35.30;73.50;;;;;;5079540;28;20056;-55
2021/07/27 08:58:18;;;;;;;6.75;3.80;;;35.60;73.00;;;;;;5096624;28;20044;-55
2021/07/27 09:00:45;;;;;;;11.25;5.43;;;35.60;71.70;;;;;;5096145;28;20071;-55
2021/07/27 09:03:18;;;;;;;6.78;4.40;;;35.50;70.40;;;;;;5095578;28;20098;-54
2021/07/27 09:05:47;;;;;;;7.50;4.65;;;35.50;69.10;;;;;;5095765;28;20093;-54
2021/07/27 09:08:15;;;;;;;9.35;4.85;;;35.50;68.90;;;;;;5096470;28;20051;-55
2021/07/27 09:10:44;;;;;;;9.15;4.78;;;35.50;69.80;;;;;;5085731;28;20047;-56
2021/07/27 09:13:15;;;;;;;7.60;4.43;;;35.70;70.40;;;;;;5096600;28;20040;-54
2021/07/27 09:15:45;;;;;;;5.90;4.95;;;35.90;70.40;;;;;;5095851;28;20123;-55
2021/07/27 09:18:15;;;;;;;7.05;5.22;;;36.00;69.30;;;;;;5095278;28;20090;-54
2021/07/27 09:20:49;;;;;;;8.05;5.25;;;36.40;69.70;;;;;;5095309;28;20055;-55
2021/07/27 09:23:21;;;;;;;8.63;5.18;;;36.30;67.70;;;;;;5094979;28;20063;-56
2021/07/27 09:25:54;;;;;;;7.30;5.20;;;36.10;67.20;;;;;;5095754;28;20067;-54
2021/07/27 09:28:23;;;;;;;7.57;5.50;;;36.20;67.00;;;;;;5095254;28;20508;-55
2021/07/27 09:31:00;;;;;;;7.93;4.90;;;36.30;66.60;;;;;;5095446;28;20043;-55
2021/07/27 09:33:33;;;;;;;6.53;4.15;;;36.20;66.20;;;;;;5094691;28;20102;-55
2021/07/27 09:36:02;;;;;;;10.98;5.75;;;36.30;65.50;;;;;;5095250;28;20067;-56
2021/07/27 09:38:32;;;;;;;8.10;5.18;;;36.50;65.80;;;;;;5077938;28;20047;-55
2021/07/27 09:41:07;;;;;;;10.77;4.35;;;36.50;65.90;;;;;;5095624;28;20565;-56
2021/07/27 09:43:45;;;;;;;7.07;4.82;;;36.60;66.20;;;;;;5095467;28;20044;-58
2021/07/27 09:46:15;;;;;;;9.65;5.53;;;36.80;65.60;;;;;;5095520;28;20486;-54
2021/07/27 09:48:45;;;;;;;10.35;6.38;;;36.80;64.20;;;;;;5094795;28;20119;-56
2021/07/27 09:51:15;;;;;;;5.85;4.72;;;36.60;63.50;;;;;;5081077;28;20048;-55
2021/07/27 09:53:45;;;;;;;6.95;3.85;;;36.70;63.30;;;;;;5094134;28;20080;-56
2021/07/27 09:56:13;;;;;;;6.45;4.75;;;36.70;60.70;;;;;;5082740;28;20056;-53
2021/07/27 09:58:41;;;;;;;6.53;4.18;;;36.80;61.70;;;;;;5093760;28;20043;-55
2021/07/27 10:01:11;;;;;;;16.38;5.65;;;36.80;62.10;;;;;;5084357;28;20060;-55
2021/07/27 10:03:57;;;;;;;8.68;4.80;;;37.00;62.20;;;;;;5075730;28;20434;-55
2021/07/27 10:06:37;;;;;;;8.02;4.97;;;36.80;60.90;;;;;;5094405;28;20105;-55
2021/07/27 10:09:05;;;;;;;6.35;4.70;;;36.80;62.00;;;;;;5075042;28;20486;-51
2021/07/27 10:11:44;;;;;;;7.65;5.03;;;36.90;62.00;;;;;;5095029;28;20525;-56
2021/07/27 10:14:14;;;;;;;11.27;4.63;;;36.80;60.60;;;;;;5080025;28;20150;-56
2021/07/27 10:16:43;;;;;;;7.78;4.82;;;36.90;60.10;;;;;;5068309;28;20044;-53
2021/07/27 10:19:20;;;;;;;7.15;4.50;;;36.90;60.60;;;;;;5091740;28;20047;-54
2021/07/27 10:22:06;;;;;;;6.55;4.32;;;36.80;60.10;;;;;;5084871;28;20039;-57
2021/07/27 10:24:42;;;;;;;7.30;4.35;;;36.90;58.90;;;;;;5094746;28;20055;-55
2021/07/27 10:27:21;;;;;;;6.72;4.43;;;36.90;59.40;;;;;;5087572;28;20078;-58
2021/07/27 10:29:50;;;;;;;9.05;4.30;;;37.10;58.80;;;;;;5094376;28;20229;-58
2021/07/27 10:32:21;;;;;;;7.53;4.45;;;37.30;59.40;;;;;;5086735;28;20494;-59
2021/07/27 10:34:54;;;;;;;13.38;5.50;;;37.30;59.50;;;;;;5093800;28;20068;-58
2021/07/27 10:37:22;;;;;;;10.38;5.30;;;37.40;59.20;;;;;;5094843;28;20044;-58
2021/07/27 10:39:55;;;;;;;11.40;4.50;;;37.60;58.90;;;;;;5089754;28;20101;-58
2021/07/27 10:42:25;;;;;;;6.63;4.28;;;37.70;58.20;;;;;;5087450;28;20055;-56
2021/07/27 10:44:53;;;;;;;8.10;4.20;;;37.70;58.30;;;;;;5089439;28;20044;-56
2021/07/27 10:47:26;;;;;;;9.43;4.57;;;37.80;58.40;;;;;;5086713;28;20127;-58
2021/07/27 10:50:08;;;;;;;7.22;4.15;;;37.90;57.90;;;;;;5093946;28;20048;-59
2021/07/27 10:52:43;;;;;;;9.32;4.20;;;37.90;57.30;;;;;;5089603;28;20052;-58
2021/07/27 10:55:15;;;;;;;8.70;4.57;;;37.90;57.30;;;;;;5093408;28;20066;-58
2021/07/27 10:57:47;;;;;;;7.10;4.47;;;38.10;57.10;;;;;;5089766;28;20121;-59
2021/07/27 11:00:17;;;;;;;9.70;4.50;;;38.10;57.00;;;;;;5093905;28;20047;-59
2021/07/27 11:02:55;;;;;;;7.43;4.47;;;38.10;57.20;;;;;;5089908;28;20064;-58
2021/07/27 11:05:24;;;;;;;5.50;4.00;;;38.20;57.20;;;;;;5086725;28;20040;-58
2021/07/27 11:07:54;;;;;;;8.45;4.80;;;38.20;56.70;;;;;;5094071;28;20043;-58
2021/07/27 11:10:26;;;;;;;9.88;4.78;;;38.20;56.40;;;;;;5093676;28;20094;-58
2021/07/27 11:12:56;;;;;;;8.55;4.80;;;38.20;56.10;;;;;;5094068;28;20508;-58
2021/07/27 11:15:26;;;;;;;6.45;4.35;;;38.30;56.50;;;;;;5086280;28;20086;-58
2021/07/27 11:17:58;;;;;;;7.95;4.80;;;38.20;56.70;;;;;;5040922;28;20102;-58
2021/07/27 11:20:31;;;;;;;6.50;4.50;;;38.30;57.10;;;;;;5076793;28;20043;-58
2021/07/27 11:23:07;;;;;;;18.00;5.22;;;38.30;56.90;;;;;;5093997;28;20397;-58
2021/07/27 11:25:35;;;;;;;;;;;38.20;56.40;;;;;;5094077;28;20036;-58
2021/07/27 11:28:14;;;;;;;9.10;4.90;;;38.20;56.00;;;;;;5093996;28;19919;-58
2021/07/27 11:30:43;;;;;;;6.45;4.45;;;38.30;56.00;;;;;;5083370;28;20047;-58
2021/07/27 11:33:13;;;;;;;8.60;4.97;;;38.20;55.20;;;;;;5092750;28;20048;-58
2021/07/27 11:35:43;;;;;;;8.18;4.30;;;38.10;55.30;;;;;;5092852;28;20505;-58
2021/07/27 11:38:29;;;;;;;9.10;4.70;;;38.20;55.30;;;;;;5093577;28;20052;-58
2021/07/27 11:41:05;;;;;;;5.78;4.50;;;38.10;54.90;;;;;;5093013;28;20140;-58
2021/07/27 11:43:39;;;;;;;9.23;5.55;;;38.00;55.90;;;;;;5093580;28;20044;-56
2021/07/27 11:46:09;;;;;;;8.77;4.60;;;37.90;56.00;;;;;;5092362;28;20509;-58
2021/07/27 11:48:37;;;;;;;9.65;5.18;;;37.80;55.60;;;;;;5075284;28;20108;-57
2021/07/27 11:51:07;;;;;;;8.25;4.40;;;37.70;55.30;;;;;;5085181;28;20057;-58
2021/07/27 11:53:41;;;;;;;7.47;4.47;;;37.60;55.30;;;;;;5074887;28;20066;-55
2021/07/27 11:56:17;;;;;;;11.88;4.93;;;37.70;55.50;;;;;;5063834;28;20052;-57
2021/07/27 11:58:49;;;;;;;5.70;4.07;;;37.70;55.70;;;;;;5091684;28;20050;-56
2021/07/27 12:01:17;;;;;;;9.48;5.00;;;37.80;55.40;;;;;;5079482;28;20048;-58
2021/07/27 12:03:45;;;;;;;10.05;5.35;;;37.90;55.40;;;;;;5091471;28;20044;-57
2021/07/27 12:06:16;;;;;;;7.82;4.57;;;37.90;55.10;;;;;;5078572;28;20470;-58
2021/07/27 12:08:44;;;;;;;8.70;4.82;;;37.90;55.10;;;;;;5092561;28;20040;-57
2021/07/27 12:11:12;;;;;;;8.00;4.72;;;37.90;55.00;;;;;;5092989;28;20063;-58
2021/07/27 12:13:39;;;;;;;7.88;5.70;;;37.90;55.40;;;;;;5092623;28;20056;-57
2021/07/27 12:16:07;;;;;;;5.55;4.03;;;37.80;55.60;;;;;;5092017;28;20058;-57
2021/07/27 12:18:35;;;;;;;9.70;4.35;;;37.90;55.90;;;;;;5074795;28;20113;-56
2021/07/27 12:21:04;;;;;;;6.70;3.85;;;37.90;55.90;;;;;;5092444;28;20059;-58
2021/07/27 12:23:33;;;;;;;5.22;4.22;;;37.90;55.70;;;;;;5092947;28;20040;-57
2021/07/27 12:26:04;;;;;;;7.32;3.85;;;38.00;57.20;;;;;;5092666;28;20052;-57
2021/07/27 12:28:33;;;;;;;8.30;4.35;;;38.10;61.90;;;;;;5075463;28;20050;-58
2021/07/27 12:31:02;;;;;;;6.97;4.63;;;38.10;63.00;;;;;;5093936;28;20509;-58
2021/07/27 12:33:30;;;;;;;7.75;4.60;;;38.10;63.40;;;;;;5097646;28;20036;-57
2021/07/27 12:36:02;;;;;;;7.50;4.50;;;38.10;62.90;;;;;;5096434;28;20444;-58
2021/07/27 12:38:34;;;;;;;10.57;5.07;;;38.00;63.40;;;;;;5097273;28;20382;-57
2021/07/27 12:41:02;;;;;;;7.60;5.38;;;38.00;63.20;;;;;;5096219;28;20055;-57
2021/07/27 12:43:31;;;;;;;8.10;5.07;;;37.90;63.10;;;;;;5096105;28;20036;-58
2021/07/27 12:46:00;;;;;;;8.52;5.15;;;37.90;62.90;;;;;;5096362;28;20135;-58
2021/07/27 12:48:28;;;;;;;12.13;4.72;;;37.90;63.20;;;;;;5096865;28;20071;-58
2021/07/27 12:50:57;;;;;;;8.23;4.38;;;37.80;63.00;;;;;;5095580;28;20048;-58
2021/07/27 12:53:26;;;;;;;10.05;4.75;;;37.70;63.20;;;;;;5097128;28;20093;-58
2021/07/27 12:55:58;;;;;;;7.07;4.53;;;37.60;62.90;;;;;;5071869;28;20058;-57
2021/07/27 12:58:26;;;;;;;8.30;5.15;;;37.60;62.70;;;;;;5078838;28;20138;-58
2021/07/27 13:00:54;;;;;;;13.13;5.88;;;37.60;62.80;;;;;;5064960;28;20050;-58
2021/07/27 13:03:25;;;;;;;10.02;4.85;;;37.50;62.90;;;;;;5078926;28;20044;-58
2021/07/27 13:05:54;;;;;;;7.05;4.13;;;37.40;62.90;;;;;;5084159;28;20051;-56
2021/07/27 13:08:23;;;;;;;10.80;5.43;;;37.40;63.00;;;;;;5062230;28;20040;-57
2021/07/27 13:10:51;;;;;;;10.85;4.30;;;37.40;62.50;;;;;;5094383;28;20044;-57
2021/07/27 13:13:20;;;;;;;8.73;4.90;;;37.20;63.10;;;;;;5096418;28;20086;-56
2021/07/27 13:15:48;;;;;;;8.77;3.97;;;37.20;63.60;;;;;;5095587;28;20390;-55